Voorthuizen, Netherlands
Current Conditions -  °F | °C
As of 7:25 PM on Thursday 27 Nov 2014 (Local Time) from EHDL Reporting Station
Light Rain Light Rain  
Wind Chill: 37°   Ceiling: 3100
Heat Index: 43°   Visibility: 2.4mi
Dew Point: 43°   Wind: 12mph
Humidity: 100%   Direction: 110°ESE
Pressure: 29.74"   Gusts: NA
Location:  52.19°N, 5.61°E
Report Text: EHDL 271825Z AUTO 11010KT 3900 -RA FEW006 SCT021 BKN031 06/06 Q1007 GRN
Loading
Personal Weather Stations






























Interactive Weather Map New forecast layout! Learn more

10-Day Weather Forecast

Advertisements
Track Severe Weather on mobile